ADDS METAR Data INFO
IDs: Format: Raw Decoded Include TAF

Data at: 0221 UTC 14 Dec 2017

KSPW 140153Z AUTO 35015KT 10SM BKN025 OVC050 00/M04 A2988 RMK AO2 SLP132 T00001039
KSPW 140144Z AUTO 35018KT 10SM BKN025 OVC050 01/M04 A2988 RMK AO2 T00061044
KSPW 140053Z AUTO 32012G20KT 10SM OVC045 00/M04 A2986 RMK AO2 PK WND 35027/2358 SLP122 T00001039
KSPW 140008Z AUTO 34019G26KT 10SM FEW026 OVC036 00/M04 A2986 RMK AO2 PK WND 35027/2358 T00001044
KSPW 132353Z AUTO 34020G25KT 10SM BKN028 OVC038 01/M04 A2986 RMK AO2 PK WND 34033/2319 SLP121 T00061044 10028 20006 51035
KSPW 132340Z AUTO 34019G31KT 10SM BKN029 OVC042 01/M04 A2985 RMK AO2 PK WND 34033/2319 T00061044
KSPW 132307Z AUTO 33020G27KT 10SM SCT024 OVC030 01/M04 A2983 RMK AO2 PK WND 33031/2257 T00061044
KSPW 132253Z AUTO 33021G31KT 10SM OVC024 01/M04 A2982 RMK AO2 PK WND 33032/2206 SLP110 T00061039
KSPW 132153Z AUTO 33018G27KT 10SM BKN027 OVC037 01/M04 A2979 RMK AO2 PK WND 33033/2108 SLP097 T00111039
KSPW 132053Z AUTO 34021G30KT 10SM BKN022 OVC029 02/M03 A2975 RMK AO2 PK WND 34037/2017 SLP085 T00171028 53022
KSPW 131953Z AUTO 33027G35KT 10SM BKN018 OVC025 02/M02 A2972 RMK AO2 PK WND 34039/1916 SLP075 T00171022
KSPW 131853Z AUTO 34024G34KT 10SM OVC016 02/M02 A2971 RMK AO2 PK WND 33039/1803 SLP072 T00171017
KSPW 131841Z AUTO 34031G39KT 10SM BKN014 OVC019 02/M02 A2970 RMK AO2 PK WND 33039/1803 T00171017
KSPW 131753Z AUTO 33028G38KT 10SM OVC018 03/M01 A2968 RMK AO2 PK WND 33043/1708 SLP062 60001 T00281011 10067 20022 51033
KSPW 131653Z AUTO 33029G39KT 10SM OVC015 02/M01 A2967 RMK AO2 PK WND 33047/1610 SLP060 T00221011
KSPW 131553Z AUTO 33026G44KT 10SM OVC015 03/00 A2963 RMK AO2 PK WND 33044/1548 SLP046 T00280000
KSPW 131453Z AUTO 32025G37KT 10SM OVC016 03/01 A2958 RMK AO2 PK WND 33037/1449 RAE20 SLP028 P0001 60001 T00330006 53038
KSPW 131353Z AUTO 31023G31KT 10SM -RA OVC018 03/02 A2953 RMK AO2 PK WND 31041/1331 RAB35 SLP012 P0000 T00330017
KSPW 131253Z AUTO 31029G39KT 10SM OVC020 06/01 A2949 RMK AO2 PK WND 30041/1159 SLP998 T00560011
KSPW 131215Z AUTO 31027G40KT 10SM BKN027 OVC110 06/01 A2947 RMK AO2 PK WND 30041/1159 T00610006
KSPW 131153Z AUTO 31025G40KT 10SM FEW029 SCT120 06/00 A2946 RMK AO2 PK WND 30040/1147 SLP986 T00610000 10067 20011 55008
KSPW 131053Z AUTO 29019G26KT 10SM CLR 06/M03 A2945 RMK AO2 PK WND 29031/1023 SLP982 T00561033
KSPW 130953Z AUTO 27014KT 10SM CLR 04/M05 A2947 RMK AO2 SLP988 T00391050
KSPW 130853Z AUTO 24009KT 10SM CLR 02/M05 A2949 RMK AO2 SLP995 T00221050 56040
KSPW 130753Z AUTO 23012KT 10SM CLR 01/M05 A2951 RMK AO2 SLP004 T00111050
KSPW 130653Z AUTO 23013KT 10SM CLR 01/M05 A2956 RMK AO2 SLP021 T00111050
KSPW 130553Z AUTO 23015G22KT 10SM CLR 02/M04 A2961 RMK AO2 PRESFR SLP040 T00171044 10017 21033 400331139 58051
KSPW 130453Z AUTO 22009KT 10SM CLR M01/M04 A2967 RMK AO2 SLP062 T10061044
KSPW 130353Z AUTO 22008KT 10SM CLR M01/M04 A2973 RMK AO2 SLP087 T10111044
KSPW 130253Z AUTO 21010KT 10SM CLR M01/M04 A2977 RMK AO2 SLP099 T10061044 58042
KSPW 130153Z AUTO 22010KT 10SM CLR M01/M05 A2982 RMK AO2 SLP119 T10111050
KSPW 130053Z AUTO 21005KT 10SM CLR M03/M07 A2987 RMK AO2 SLP137 T10331067
KSPW 122353Z AUTO 22009KT 10SM CLR M01/M05 A2990 RMK AO2 SLP146 T10061050 10033 21022 56038
KSPW 122253Z AUTO 23008KT 10SM CLR 01/M04 A2994 RMK AO2 SLP159 T00111044
KSPW 122153Z AUTO 24011KT 10SM SCT070 03/M04 A2997 RMK AO2 SLP167 T00331039
KSPW 122053Z AUTO 26012KT 10SM CLR 03/M04 A3001 RMK AO2 SLP182 T00331044 56040
KSPW 121953Z AUTO 25013KT 10SM CLR 02/M05 A3005 RMK AO2 SLP195 T00171050
KSPW 121853Z AUTO 24012KT 10SM CLR M01/M07 A3009 RMK AO2 PRESFR SLP211 T10061067
KSPW 121753Z AUTO 26010KT 10SM CLR M02/M08 A3014 RMK AO2 SLP227 T10221078 11022 21133 58030
KSPW 121653Z AUTO 25006KT 10SM CLR M04/M08 A3020 RMK AO2 SLP247 T10391083
KSPW 121553Z AUTO 25006KT 10SM CLR M07/M09 A3021 RMK AO2 SLP254 T10671094
KSPW 121453Z AUTO 27008KT 10SM CLR M10/M12 A3023 RMK AO2 SLP262 T11001122 58011